sensor_id;sensor_type;location;lat;lon;timestamp;pressure;altitude;pressure_sealevel;temperature
67501;BMP180;54349;52.528;19.760;2023-05-10T00:01:35;101167.00;;;22.70
67501;BMP180;54349;52.528;19.760;2023-05-10T00:04:04;101168.20;;;22.70
67501;BMP180;54349;52.528;19.760;2023-05-10T00:06:32;101168.20;;;22.70
67501;BMP180;54349;52.528;19.760;2023-05-10T00:09:00;101167.00;;;22.70
67501;BMP180;54349;52.528;19.760;2023-05-10T00:11:28;101167.00;;;22.70
67501;BMP180;54349;52.528;19.760;2023-05-10T00:13:56;101162.80;;;22.70
67501;BMP180;54349;52.528;19.760;2023-05-10T00:16:24;101159.60;;;22.70
67501;BMP180;54349;52.528;19.760;2023-05-10T00:18:52;101162.20;;;22.70
67501;BMP180;54349;52.528;19.760;2023-05-10T00:21:21;101161.60;;;22.60
67501;BMP180;54349;52.528;19.760;2023-05-10T00:23:50;101158.80;;;22.60
67501;BMP180;54349;52.528;19.760;2023-05-10T00:26:17;101156.80;;;22.60
67501;BMP180;54349;52.528;19.760;2023-05-10T00:28:48;101154.00;;;22.58
67501;BMP180;54349;52.528;19.760;2023-05-10T00:31:16;101152.60;;;22.50
67501;BMP180;54349;52.528;19.760;2023-05-10T00:33:44;101147.40;;;22.50
67501;BMP180;54349;52.528;19.760;2023-05-10T00:36:13;101151.40;;;22.50
67501;BMP180;54349;52.528;19.760;2023-05-10T00:38:41;101151.40;;;22.46
67501;BMP180;54349;52.528;19.760;2023-05-10T00:41:09;101150.60;;;22.40
67501;BMP180;54349;52.528;19.760;2023-05-10T00:43:38;101146.20;;;22.40
67501;BMP180;54349;52.528;19.760;2023-05-10T00:46:07;101145.60;;;22.40
67501;BMP180;54349;52.528;19.760;2023-05-10T00:48:35;101142.20;;;22.38
67501;BMP180;54349;52.528;19.760;2023-05-10T00:51:04;101145.40;;;22.30
67501;BMP180;54349;52.528;19.760;2023-05-10T00:53:32;101144.00;;;22.30
67501;BMP180;54349;52.528;19.760;2023-05-10T00:56:02;101144.00;;;22.30
67501;BMP180;54349;52.528;19.760;2023-05-10T00:58:31;101144.00;;;22.30
67501;BMP180;54349;52.528;19.760;2023-05-10T01:01:01;101143.20;;;22.20
67501;BMP180;54349;52.528;19.760;2023-05-10T01:03:29;101147.20;;;22.20
67501;BMP180;54349;52.528;19.760;2023-05-10T01:05:58;101147.40;;;22.20
67501;BMP180;54349;52.528;19.760;2023-05-10T01:08:26;101135.00;;;22.20
67501;BMP180;54349;52.528;19.760;2023-05-10T01:10:56;101134.40;;;22.18
67501;BMP180;54349;52.528;19.760;2023-05-10T01:13:36;101138.40;;;22.10
67501;BMP180;54349;52.528;19.760;2023-05-10T01:16:06;101133.00;;;22.10
67501;BMP180;54349;52.528;19.760;2023-05-10T01:18:41;101132.60;;;22.10
67501;BMP180;54349;52.528;19.760;2023-05-10T01:21:33;101130.20;;;22.10
67501;BMP180;54349;52.528;19.760;2023-05-10T01:27:38;101129.60;;;22.00
67501;BMP180;54349;52.528;19.760;2023-05-10T01:33:11;101131.20;;;21.98
67501;BMP180;54349;52.528;19.760;2023-05-10T01:38:52;101121.00;;;21.90
67501;BMP180;54349;52.528;19.760;2023-05-10T01:41:49;101118.60;;;21.90
67501;BMP180;54349;52.528;19.760;2023-05-10T01:47:12;101122.40;;;21.80
67501;BMP180;54349;52.528;19.760;2023-05-10T01:49:49;101123.40;;;21.80
67501;BMP180;54349;52.528;19.760;2023-05-10T01:52:32;101123.60;;;21.80
67501;BMP180;54349;52.528;19.760;2023-05-10T01:55:15;101123.40;;;21.80
67501;BMP180;54349;52.528;19.760;2023-05-10T01:57:48;101117.80;;;21.76
67501;BMP180;54349;52.528;19.760;2023-05-10T02:00:20;101115.60;;;21.70
67501;BMP180;54349;52.528;19.760;2023-05-10T02:02:52;101110.00;;;21.70
67501;BMP180;54349;52.528;19.760;2023-05-10T02:05:22;101110.20;;;21.70
67501;BMP180;54349;52.528;19.760;2023-05-10T02:07:54;101107.00;;;21.70
67501;BMP180;54349;52.528;19.760;2023-05-10T02:10:22;101108.40;;;21.66
67501;BMP180;54349;52.528;19.760;2023-05-10T02:12:51;101104.80;;;21.62
67501;BMP180;54349;52.528;19.760;2023-05-10T02:15:24;101105.20;;;21.60
67501;BMP180;54349;52.528;19.760;2023-05-10T02:17:55;101102.80;;;21.60
67501;BMP180;54349;52.528;19.760;2023-05-10T02:20:26;101099.00;;;21.60
67501;BMP180;54349;52.528;19.760;2023-05-10T02:22:57;101099.00;;;21.60
67501;BMP180;54349;52.528;19.760;2023-05-10T02:25:25;101101.60;;;21.52
67501;BMP180;54349;52.528;19.760;2023-05-10T02:27:56;101104.00;;;21.52
67501;BMP180;54349;52.528;19.760;2023-05-10T02:30:26;101103.20;;;21.50
67501;BMP180;54349;52.528;19.760;2023-05-10T02:32:56;101103.00;;;21.50
67501;BMP180;54349;52.528;19.760;2023-05-10T02:35:29;101098.20;;;21.50
67501;BMP180;54349;52.528;19.760;2023-05-10T02:37:59;101099.00;;;21.50
67501;BMP180;54349;52.528;19.760;2023-05-10T02:40:31;101098.00;;;21.48
67501;BMP180;54349;52.528;19.760;2023-05-10T02:43:02;101096.20;;;21.40
67501;BMP180;54349;52.528;19.760;2023-05-10T02:45:34;101099.80;;;21.40
67501;BMP180;54349;52.528;19.760;2023-05-10T02:48:03;101098.20;;;21.40
67501;BMP180;54349;52.528;19.760;2023-05-10T02:50:33;101104.60;;;21.40
67501;BMP180;54349;52.528;19.760;2023-05-10T02:53:10;101101.00;;;21.40
67501;BMP180;54349;52.528;19.760;2023-05-10T02:55:42;101105.40;;;21.40
67501;BMP180;54349;52.528;19.760;2023-05-10T02:58:14;101107.60;;;21.38
67501;BMP180;54349;52.528;19.760;2023-05-10T03:00:42;101106.40;;;21.30
67501;BMP180;54349;52.528;19.760;2023-05-10T03:03:12;101107.00;;;21.30
67501;BMP180;54349;52.528;19.760;2023-05-10T03:05:40;101107.60;;;21.30
67501;BMP180;54349;52.528;19.760;2023-05-10T03:08:09;101114.80;;;21.30
67501;BMP180;54349;52.528;19.760;2023-05-10T03:11:32;101117.00;;;21.30
67501;BMP180;54349;52.528;19.760;2023-05-10T03:14:23;101110.80;;;21.26
67501;BMP180;54349;52.528;19.760;2023-05-10T03:17:06;101115.40;;;21.20
67501;BMP180;54349;52.528;19.760;2023-05-10T03:19:53;101108.40;;;21.20
67501;BMP180;54349;52.528;19.760;2023-05-10T03:22:38;101112.20;;;21.20
67501;BMP180;54349;52.528;19.760;2023-05-10T03:25:11;101110.00;;;21.20
67501;BMP180;54349;52.528;19.760;2023-05-10T03:27:43;101106.60;;;21.20
67501;BMP180;54349;52.528;19.760;2023-05-10T03:30:13;101106.60;;;21.20
67501;BMP180;54349;52.528;19.760;2023-05-10T03:32:41;101102.00;;;21.14
67501;BMP180;54349;52.528;19.760;2023-05-10T03:35:12;101101.00;;;21.10
67501;BMP180;54349;52.528;19.760;2023-05-10T03:37:41;101101.20;;;21.10
67501;BMP180;54349;52.528;19.760;2023-05-10T03:40:09;101100.00;;;21.10
67501;BMP180;54349;52.528;19.760;2023-05-10T03:42:39;101099.00;;;21.10
67501;BMP180;54349;52.528;19.760;2023-05-10T03:45:08;101099.20;;;21.10
67501;BMP180;54349;52.528;19.760;2023-05-10T03:47:37;101095.40;;;21.10
67501;BMP180;54349;52.528;19.760;2023-05-10T03:50:06;101100.40;;;21.10
67501;BMP180;54349;52.528;19.760;2023-05-10T03:52:34;101095.60;;;21.06
67501;BMP180;54349;52.528;19.760;2023-05-10T03:55:03;101095.80;;;21.02
67501;BMP180;54349;52.528;19.760;2023-05-10T03:57:32;101100.00;;;21.00
67501;BMP180;54349;52.528;19.760;2023-05-10T04:00:00;101097.40;;;21.00
67501;BMP180;54349;52.528;19.760;2023-05-10T04:02:28;101095.00;;;21.00
67501;BMP180;54349;52.528;19.760;2023-05-10T04:04:58;101089.60;;;21.00
67501;BMP180;54349;52.528;19.760;2023-05-10T04:07:26;101088.80;;;21.00
67501;BMP180;54349;52.528;19.760;2023-05-10T04:09:54;101090.20;;;21.00
67501;BMP180;54349;52.528;19.760;2023-05-10T04:12:22;101097.80;;;21.00
67501;BMP180;54349;52.528;19.760;2023-05-10T04:14:50;101090.40;;;20.98
67501;BMP180;54349;52.528;19.760;2023-05-10T04:17:18;101092.40;;;20.98
67501;BMP180;54349;52.528;19.760;2023-05-10T04:19:47;101091.60;;;21.00
67501;BMP180;54349;52.528;19.760;2023-05-10T04:22:15;101098.40;;;21.00
67501;BMP180;54349;52.528;19.760;2023-05-10T04:24:43;101106.60;;;21.00
67501;BMP180;54349;52.528;19.760;2023-05-10T04:27:11;101103.40;;;21.00
67501;BMP180;54349;52.528;19.760;2023-05-10T04:29:39;101099.80;;;21.00
67501;BMP180;54349;52.528;19.760;2023-05-10T04:32:08;101102.80;;;21.00
67501;BMP180;54349;52.528;19.760;2023-05-10T04:34:37;101102.80;;;21.00
67501;BMP180;54349;52.528;19.760;2023-05-10T04:37:05;101100.00;;;21.04
67501;BMP180;54349;52.528;19.760;2023-05-10T04:39:35;101103.00;;;21.10
67501;BMP180;54349;52.528;19.760;2023-05-10T04:42:03;101097.40;;;21.10
67501;BMP180;54349;52.528;19.760;2023-05-10T04:44:33;101098.80;;;21.10
67501;BMP180;54349;52.528;19.760;2023-05-10T04:47:02;101092.40;;;21.10
67501;BMP180;54349;52.528;19.760;2023-05-10T04:49:31;101090.40;;;21.10
67501;BMP180;54349;52.528;19.760;2023-05-10T04:51:59;101089.00;;;21.10
67501;BMP180;54349;52.528;19.760;2023-05-10T04:54:27;101092.40;;;21.10
67501;BMP180;54349;52.528;19.760;2023-05-10T04:56:55;101095.00;;;21.10
67501;BMP180;54349;52.528;19.760;2023-05-10T04:59:23;101093.20;;;21.10
67501;BMP180;54349;52.528;19.760;2023-05-10T05:01:51;101095.40;;;21.10
67501;BMP180;54349;52.528;19.760;2023-05-10T05:04:19;101096.20;;;21.10
67501;BMP180;54349;52.528;19.760;2023-05-10T05:06:47;101093.80;;;21.10
67501;BMP180;54349;52.528;19.760;2023-05-10T05:09:15;101090.60;;;21.10
67501;BMP180;54349;52.528;19.760;2023-05-10T05:11:44;101091.80;;;21.10
67501;BMP180;54349;52.528;19.760;2023-05-10T05:14:12;101086.20;;;21.10
67501;BMP180;54349;52.528;19.760;2023-05-10T05:16:40;101084.20;;;21.10
67501;BMP180;54349;52.528;19.760;2023-05-10T05:19:08;101085.00;;;21.08
67501;BMP180;54349;52.528;19.760;2023-05-10T05:21:36;101083.80;;;21.00
67501;BMP180;54349;52.528;19.760;2023-05-10T05:24:05;101087.00;;;21.00
67501;BMP180;54349;52.528;19.760;2023-05-10T05:26:33;101084.20;;;21.00
67501;BMP180;54349;52.528;19.760;2023-05-10T05:29:02;101085.20;;;21.00
67501;BMP180;54349;52.528;19.760;2023-05-10T05:31:30;101086.40;;;21.00
67501;BMP180;54349;52.528;19.760;2023-05-10T05:33:58;101081.80;;;20.92
67501;BMP180;54349;52.528;19.760;2023-05-10T05:36:26;101080.40;;;20.90
67501;BMP180;54349;52.528;19.760;2023-05-10T05:38:55;101080.60;;;20.90
67501;BMP180;54349;52.528;19.760;2023-05-10T05:41:23;101077.00;;;20.90
67501;BMP180;54349;52.528;19.760;2023-05-10T05:43:52;101083.20;;;20.90
67501;BMP180;54349;52.528;19.760;2023-05-10T05:46:20;101080.80;;;20.90
67501;BMP180;54349;52.528;19.760;2023-05-10T05:48:48;101085.40;;;20.90
67501;BMP180;54349;52.528;19.760;2023-05-10T05:51:16;101082.80;;;20.90
67501;BMP180;54349;52.528;19.760;2023-05-10T05:53:44;101084.80;;;20.88
67501;BMP180;54349;52.528;19.760;2023-05-10T05:56:13;101085.00;;;20.86
67501;BMP180;54349;52.528;19.760;2023-05-10T05:58:40;101084.80;;;20.80
67501;BMP180;54349;52.528;19.760;2023-05-10T06:01:09;101086.20;;;20.80
67501;BMP180;54349;52.528;19.760;2023-05-10T06:03:37;101082.40;;;20.80
67501;BMP180;54349;52.528;19.760;2023-05-10T06:06:05;101085.40;;;20.80
67501;BMP180;54349;52.528;19.760;2023-05-10T06:08:34;101087.40;;;20.80
67501;BMP180;54349;52.528;19.760;2023-05-10T06:11:02;101090.20;;;20.80
67501;BMP180;54349;52.528;19.760;2023-05-10T06:13:31;101088.20;;;20.80
67501;BMP180;54349;52.528;19.760;2023-05-10T06:16:02;101090.20;;;20.80
67501;BMP180;54349;52.528;19.760;2023-05-10T06:18:30;101090.20;;;20.80
67501;BMP180;54349;52.528;19.760;2023-05-10T06:20:59;101091.60;;;20.80
67501;BMP180;54349;52.528;19.760;2023-05-10T06:23:27;101089.80;;;20.80
67501;BMP180;54349;52.528;19.760;2023-05-10T06:25:55;101089.00;;;20.80
67501;BMP180;54349;52.528;19.760;2023-05-10T06:28:23;101088.80;;;20.80
67501;BMP180;54349;52.528;19.760;2023-05-10T06:30:51;101088.00;;;20.80
67501;BMP180;54349;52.528;19.760;2023-05-10T06:33:19;101082.00;;;20.80
67501;BMP180;54349;52.528;19.760;2023-05-10T06:35:48;101081.60;;;20.80
67501;BMP180;54349;52.528;19.760;2023-05-10T06:38:16;101081.00;;;20.80
67501;BMP180;54349;52.528;19.760;2023-05-10T06:40:44;101080.20;;;20.80
67501;BMP180;54349;52.528;19.760;2023-05-10T06:43:13;101080.40;;;20.80
67501;BMP180;54349;52.528;19.760;2023-05-10T06:45:42;101075.80;;;20.80
67501;BMP180;54349;52.528;19.760;2023-05-10T06:48:11;101077.00;;;20.80
67501;BMP180;54349;52.528;19.760;2023-05-10T06:50:39;101073.80;;;20.80
67501;BMP180;54349;52.528;19.760;2023-05-10T06:53:07;101071.80;;;20.80
67501;BMP180;54349;52.528;19.760;2023-05-10T06:55:35;101068.20;;;20.80
67501;BMP180;54349;52.528;19.760;2023-05-10T06:58:03;101071.20;;;20.80
67501;BMP180;54349;52.528;19.760;2023-05-10T07:00:31;101069.20;;;20.80
67501;BMP180;54349;52.528;19.760;2023-05-10T07:02:59;101071.20;;;20.80
67501;BMP180;54349;52.528;19.760;2023-05-10T07:05:28;101072.00;;;20.80
67501;BMP180;54349;52.528;19.760;2023-05-10T07:07:57;101068.80;;;20.80
67501;BMP180;54349;52.528;19.760;2023-05-10T07:10:25;101070.80;;;20.80
67501;BMP180;54349;52.528;19.760;2023-05-10T07:12:53;101074.80;;;20.80
67501;BMP180;54349;52.528;19.760;2023-05-10T07:15:21;101074.40;;;20.80
67501;BMP180;54349;52.528;19.760;2023-05-10T07:17:50;101073.00;;;20.80
67501;BMP180;54349;52.528;19.760;2023-05-10T07:20:20;101074.00;;;20.80
67501;BMP180;54349;52.528;19.760;2023-05-10T07:22:48;101081.20;;;20.80
67501;BMP180;54349;52.528;19.760;2023-05-10T07:25:16;101075.20;;;20.80
67501;BMP180;54349;52.528;19.760;2023-05-10T07:27:45;101074.20;;;20.80
67501;BMP180;54349;52.528;19.760;2023-05-10T07:30:14;101077.00;;;20.80
67501;BMP180;54349;52.528;19.760;2023-05-10T07:32:42;101072.40;;;20.80
67501;BMP180;54349;52.528;19.760;2023-05-10T07:35:11;101077.20;;;20.80
67501;BMP180;54349;52.528;19.760;2023-05-10T07:37:39;101075.80;;;20.80
67501;BMP180;54349;52.528;19.760;2023-05-10T07:40:08;101069.80;;;20.80
67501;BMP180;54349;52.528;19.760;2023-05-10T07:42:36;101075.80;;;20.80
67501;BMP180;54349;52.528;19.760;2023-05-10T07:45:06;101072.80;;;20.80
67501;BMP180;54349;52.528;19.760;2023-05-10T07:47:34;101072.60;;;20.80
67501;BMP180;54349;52.528;19.760;2023-05-10T07:50:04;101071.40;;;20.80
67501;BMP180;54349;52.528;19.760;2023-05-10T07:52:33;101074.60;;;20.80
67501;BMP180;54349;52.528;19.760;2023-05-10T07:55:01;101064.20;;;20.80
67501;BMP180;54349;52.528;19.760;2023-05-10T07:57:30;101066.80;;;20.80
67501;BMP180;54349;52.528;19.760;2023-05-10T07:59:58;101066.80;;;20.80
67501;BMP180;54349;52.528;19.760;2023-05-10T08:02:26;101060.80;;;20.80
67501;BMP180;54349;52.528;19.760;2023-05-10T08:04:55;101066.00;;;20.80
67501;BMP180;54349;52.528;19.760;2023-05-10T08:07:24;101066.60;;;20.80
67501;BMP180;54349;52.528;19.760;2023-05-10T08:09:52;101066.60;;;20.80
67501;BMP180;54349;52.528;19.760;2023-05-10T08:12:20;101064.60;;;20.80
67501;BMP180;54349;52.528;19.760;2023-05-10T08:14:48;101067.20;;;20.82
67501;BMP180;54349;52.528;19.760;2023-05-10T08:17:16;101059.00;;;20.82
67501;BMP180;54349;52.528;19.760;2023-05-10T08:19:47;101057.40;;;20.86
67501;BMP180;54349;52.528;19.760;2023-05-10T08:22:15;101058.00;;;20.86
67501;BMP180;54349;52.528;19.760;2023-05-10T08:24:43;101065.20;;;20.88
67501;BMP180;54349;52.528;19.760;2023-05-10T08:27:12;101055.20;;;20.90
67501;BMP180;54349;52.528;19.760;2023-05-10T08:29:40;101058.60;;;20.90
67501;BMP180;54349;52.528;19.760;2023-05-10T08:32:17;101061.40;;;20.90
67501;BMP180;54349;52.528;19.760;2023-05-10T08:34:45;101065.20;;;20.90
67501;BMP180;54349;52.528;19.760;2023-05-10T08:37:13;101062.20;;;20.90
67501;BMP180;54349;52.528;19.760;2023-05-10T08:39:41;101061.20;;;20.90
67501;BMP180;54349;52.528;19.760;2023-05-10T08:42:10;101070.60;;;20.90
67501;BMP180;54349;52.528;19.760;2023-05-10T08:44:39;101068.20;;;20.90
67501;BMP180;54349;52.528;19.760;2023-05-10T08:47:09;101064.80;;;20.90
67501;BMP180;54349;52.528;19.760;2023-05-10T08:49:38;101060.00;;;20.90
67501;BMP180;54349;52.528;19.760;2023-05-10T08:52:11;101061.00;;;20.90
67501;BMP180;54349;52.528;19.760;2023-05-10T08:54:42;101058.20;;;20.94
67501;BMP180;54349;52.528;19.760;2023-05-10T08:57:11;101057.20;;;21.00
67501;BMP180;54349;52.528;19.760;2023-05-10T08:59:40;101054.80;;;21.00
67501;BMP180;54349;52.528;19.760;2023-05-10T09:02:11;101063.60;;;21.00
67501;BMP180;54349;52.528;19.760;2023-05-10T09:04:43;101054.20;;;21.00
67501;BMP180;54349;52.528;19.760;2023-05-10T09:07:11;101049.80;;;21.00
67501;BMP180;54349;52.528;19.760;2023-05-10T09:09:40;101059.80;;;21.00
67501;BMP180;54349;52.528;19.760;2023-05-10T09:12:08;101055.80;;;21.00
67501;BMP180;54349;52.528;19.760;2023-05-10T09:14:39;101060.60;;;21.02
67501;BMP180;54349;52.528;19.760;2023-05-10T09:17:09;101056.40;;;21.02
67501;BMP180;54349;52.528;19.760;2023-05-10T09:19:37;101057.20;;;21.10
67501;BMP180;54349;52.528;19.760;2023-05-10T09:22:06;101062.00;;;21.10
67501;BMP180;54349;52.528;19.760;2023-05-10T09:24:34;101055.40;;;21.10
67501;BMP180;54349;52.528;19.760;2023-05-10T09:27:02;101054.40;;;21.10
67501;BMP180;54349;52.528;19.760;2023-05-10T09:29:42;101051.40;;;21.10
67501;BMP180;54349;52.528;19.760;2023-05-10T09:32:11;101051.00;;;21.12
67501;BMP180;54349;52.528;19.760;2023-05-10T09:34:41;101051.40;;;21.16
67501;BMP180;54349;52.528;19.760;2023-05-10T09:37:10;101049.40;;;21.20
67501;BMP180;54349;52.528;19.760;2023-05-10T09:39:38;101051.00;;;21.20
67501;BMP180;54349;52.528;19.760;2023-05-10T09:42:08;101047.80;;;21.20
67501;BMP180;54349;52.528;19.760;2023-05-10T09:44:37;101049.00;;;21.20
67501;BMP180;54349;52.528;19.760;2023-05-10T09:47:06;101053.80;;;21.26
67501;BMP180;54349;52.528;19.760;2023-05-10T09:49:34;101048.60;;;21.30
67501;BMP180;54349;52.528;19.760;2023-05-10T09:52:05;101048.60;;;21.30
67501;BMP180;54349;52.528;19.760;2023-05-10T09:54:34;101040.60;;;21.30
67501;BMP180;54349;52.528;19.760;2023-05-10T09:57:02;101043.20;;;21.30
67501;BMP180;54349;52.528;19.760;2023-05-10T09:59:33;101042.60;;;21.32
67501;BMP180;54349;52.528;19.760;2023-05-10T10:02:03;101041.00;;;21.40
67501;BMP180;54349;52.528;19.760;2023-05-10T10:04:32;101043.80;;;21.40
67501;BMP180;54349;52.528;19.760;2023-05-10T10:07:03;101037.20;;;21.40
67501;BMP180;54349;52.528;19.760;2023-05-10T10:09:34;101033.60;;;21.40
67501;BMP180;54349;52.528;19.760;2023-05-10T10:12:03;101027.20;;;21.42
67501;BMP180;54349;52.528;19.760;2023-05-10T10:14:34;101025.00;;;21.50
67501;BMP180;54349;52.528;19.760;2023-05-10T10:17:03;101025.40;;;21.50
67501;BMP180;54349;52.528;19.760;2023-05-10T10:19:35;101024.20;;;21.50
67501;BMP180;54349;52.528;19.760;2023-05-10T10:22:05;101022.80;;;21.50
67501;BMP180;54349;52.528;19.760;2023-05-10T10:24:34;101020.40;;;21.58
67501;BMP180;54349;52.528;19.760;2023-05-10T10:36:01;101013.20;;;21.64
67501;BMP180;54349;52.528;19.760;2023-05-10T10:38:57;101007.40;;;21.70
67501;BMP180;54349;52.528;19.760;2023-05-10T10:41:55;101004.20;;;21.70
67501;BMP180;54349;52.528;19.760;2023-05-10T10:52:27;101001.20;;;21.80
67501;BMP180;54349;52.528;19.760;2023-05-10T10:55:19;100987.20;;;21.80
67501;BMP180;54349;52.528;19.760;2023-05-10T10:57:55;100994.40;;;21.80
67501;BMP180;54349;52.528;19.760;2023-05-10T11:00:36;101001.80;;;21.86
67501;BMP180;54349;52.528;19.760;2023-05-10T11:03:11;101005.60;;;21.90
67501;BMP180;54349;52.528;19.760;2023-05-10T11:05:50;101003.40;;;21.90
67501;BMP180;54349;52.528;19.760;2023-05-10T11:08:30;100995.40;;;21.90
67501;BMP180;54349;52.528;19.760;2023-05-10T11:16:21;100987.80;;;22.00
67501;BMP180;54349;52.528;19.760;2023-05-10T11:19:06;100995.20;;;22.00
67501;BMP180;54349;52.528;19.760;2023-05-10T11:21:49;100993.40;;;22.10
67501;BMP180;54349;52.528;19.760;2023-05-10T11:24:25;100990.60;;;22.10
67501;BMP180;54349;52.528;19.760;2023-05-10T11:26:55;100988.80;;;22.10
67501;BMP180;54349;52.528;19.760;2023-05-10T11:29:23;100982.00;;;22.10
67501;BMP180;54349;52.528;19.760;2023-05-10T11:31:57;100980.20;;;22.18
67501;BMP180;54349;52.528;19.760;2023-05-10T11:34:31;100978.00;;;22.20
67501;BMP180;54349;52.528;19.760;2023-05-10T11:37:02;100976.40;;;22.20
67501;BMP180;54349;52.528;19.760;2023-05-10T11:39:31;100978.80;;;22.20
67501;BMP180;54349;52.528;19.760;2023-05-10T11:42:01;100986.00;;;22.26
67501;BMP180;54349;52.528;19.760;2023-05-10T11:44:31;100984.00;;;22.30
67501;BMP180;54349;52.528;19.760;2023-05-10T11:47:01;100979.20;;;22.30
67501;BMP180;54349;52.528;19.760;2023-05-10T11:49:29;100968.20;;;22.30
67501;BMP180;54349;52.528;19.760;2023-05-10T11:52:08;100978.00;;;22.30
67501;BMP180;54349;52.528;19.760;2023-05-10T11:54:36;100966.80;;;22.38
67501;BMP180;54349;52.528;19.760;2023-05-10T11:57:04;100972.20;;;22.40
67501;BMP180;54349;52.528;19.760;2023-05-10T11:59:33;100964.40;;;22.40
67501;BMP180;54349;52.528;19.760;2023-05-10T12:02:01;100977.40;;;22.40
67501;BMP180;54349;52.528;19.760;2023-05-10T12:04:31;100975.80;;;22.40
67501;BMP180;54349;52.528;19.760;2023-05-10T12:06:59;100975.40;;;22.48
67501;BMP180;54349;52.528;19.760;2023-05-10T12:09:28;100972.60;;;22.50
67501;BMP180;54349;52.528;19.760;2023-05-10T12:12:16;100969.40;;;22.50
67501;BMP180;54349;52.528;19.760;2023-05-10T12:14:50;100970.40;;;22.50
67501;BMP180;54349;52.528;19.760;2023-05-10T12:17:18;100966.60;;;22.52
67501;BMP180;54349;52.528;19.760;2023-05-10T12:19:46;100963.20;;;22.58
67501;BMP180;54349;52.528;19.760;2023-05-10T12:22:14;100959.60;;;22.60
67501;BMP180;54349;52.528;19.760;2023-05-10T12:24:45;100958.00;;;22.60
67501;BMP180;54349;52.528;19.760;2023-05-10T12:27:14;100964.00;;;22.60
67501;BMP180;54349;52.528;19.760;2023-05-10T12:30:00;100969.20;;;22.64
67501;BMP180;54349;52.528;19.760;2023-05-10T12:32:39;100957.80;;;22.70
67501;BMP180;54349;52.528;19.760;2023-05-10T12:35:08;100964.60;;;22.70
67501;BMP180;54349;52.528;19.760;2023-05-10T12:37:36;100966.60;;;22.70
67501;BMP180;54349;52.528;19.760;2023-05-10T12:40:09;100964.20;;;22.70
67501;BMP180;54349;52.528;19.760;2023-05-10T12:42:39;100960.80;;;22.72
67501;BMP180;54349;52.528;19.760;2023-05-10T12:45:09;100963.20;;;22.80
67501;BMP180;54349;52.528;19.760;2023-05-10T12:47:38;100961.20;;;22.80
67501;BMP180;54349;52.528;19.760;2023-05-10T12:50:10;100962.40;;;22.80
67501;BMP180;54349;52.528;19.760;2023-05-10T12:52:38;100961.20;;;22.80
67501;BMP180;54349;52.528;19.760;2023-05-10T12:55:08;100956.60;;;22.82
67501;BMP180;54349;52.528;19.760;2023-05-10T12:57:36;100955.20;;;22.90
67501;BMP180;54349;52.528;19.760;2023-05-10T13:00:06;100956.60;;;22.90
67501;BMP180;54349;52.528;19.760;2023-05-10T13:02:34;100950.00;;;22.90
67501;BMP180;54349;52.528;19.760;2023-05-10T13:05:03;100948.80;;;22.90
67501;BMP180;54349;52.528;19.760;2023-05-10T13:07:31;100945.80;;;22.90
67501;BMP180;54349;52.528;19.760;2023-05-10T13:10:00;100947.60;;;22.90
67501;BMP180;54349;52.528;19.760;2023-05-10T13:12:28;100941.60;;;23.00
67501;BMP180;54349;52.528;19.760;2023-05-10T13:14:57;100940.60;;;23.00
67501;BMP180;54349;52.528;19.760;2023-05-10T13:17:25;100946.60;;;23.00
67501;BMP180;54349;52.528;19.760;2023-05-10T13:19:54;100947.40;;;23.00
67501;BMP180;54349;52.528;19.760;2023-05-10T13:22:23;100937.00;;;23.00
67501;BMP180;54349;52.528;19.760;2023-05-10T13:25:07;100942.60;;;23.02
67501;BMP180;54349;52.528;19.760;2023-05-10T13:27:35;100947.00;;;23.04
67501;BMP180;54349;52.528;19.760;2023-05-10T13:30:04;100938.00;;;23.10
67501;BMP180;54349;52.528;19.760;2023-05-10T13:32:33;100934.40;;;23.10
67501;BMP180;54349;52.528;19.760;2023-05-10T13:35:02;100930.80;;;23.10
67501;BMP180;54349;52.528;19.760;2023-05-10T13:37:33;100928.00;;;23.10
67501;BMP180;54349;52.528;19.760;2023-05-10T13:40:06;100929.80;;;23.10
67501;BMP180;54349;52.528;19.760;2023-05-10T13:42:34;100928.00;;;23.12
67501;BMP180;54349;52.528;19.760;2023-05-10T13:45:03;100926.00;;;23.14
67501;BMP180;54349;52.528;19.760;2023-05-10T13:47:31;100922.20;;;23.20
67501;BMP180;54349;52.528;19.760;2023-05-10T13:50:00;100923.20;;;23.20
67501;BMP180;54349;52.528;19.760;2023-05-10T13:52:28;100922.00;;;23.20
67501;BMP180;54349;52.528;19.760;2023-05-10T13:54:56;100920.00;;;23.20
67501;BMP180;54349;52.528;19.760;2023-05-10T13:58:15;100912.60;;;23.20
67501;BMP180;54349;52.528;19.760;2023-05-10T14:00:43;100913.60;;;23.20
67501;BMP180;54349;52.528;19.760;2023-05-10T14:03:11;100916.40;;;23.22
67501;BMP180;54349;52.528;19.760;2023-05-10T14:05:39;100923.00;;;23.30
67501;BMP180;54349;52.528;19.760;2023-05-10T14:08:07;100914.80;;;23.30
67501;BMP180;54349;52.528;19.760;2023-05-10T14:10:37;100913.00;;;23.30
67501;BMP180;54349;52.528;19.760;2023-05-10T14:13:05;100905.20;;;23.30
67501;BMP180;54349;52.528;19.760;2023-05-10T14:15:34;100902.00;;;23.30
67501;BMP180;54349;52.528;19.760;2023-05-10T14:18:02;100904.60;;;23.30
67501;BMP180;54349;52.528;19.760;2023-05-10T14:20:31;100902.60;;;23.30
67501;BMP180;54349;52.528;19.760;2023-05-10T14:23:01;100902.00;;;23.34
67501;BMP180;54349;52.528;19.760;2023-05-10T14:25:29;100910.20;;;23.40
67501;BMP180;54349;52.528;19.760;2023-05-10T14:27:57;100904.60;;;23.40
67501;BMP180;54349;52.528;19.760;2023-05-10T14:30:26;100896.60;;;23.40
67501;BMP180;54349;52.528;19.760;2023-05-10T14:32:54;100904.60;;;23.40
67501;BMP180;54349;52.528;19.760;2023-05-10T14:35:22;100905.60;;;23.40
67501;BMP180;54349;52.528;19.760;2023-05-10T14:37:51;100907.60;;;23.40